Berlin, New Hampshire
Current Conditions -  °F | °C
As of 12:52 AM on Wednesday 22 Oct 2014 (Local Time) from KBML Reporting Station
Light Rain Light Rain  
Wind Chill: 42°   Ceiling: 1400
Heat Index: 44°   Visibility: 7mi
Dew Point: 43°   Wind: 5mph
Humidity: 96%   Direction: 330°NNW
Pressure: 30.12"   Gusts: NA
Location:  44.47°N, 71.18°W
Report Text: KBML 220452Z AUTO 33004KT 7SM -RA BKN014 OVC027 07/06 A3012 RMK AO2 SLP208 P0003 T00670061 400831006
Loading
Personal Weather Stations






























Interactive Weather Map
Tropical Storm Tracking
New forecast layout! Learn more

10-Day Weather Forecast

Advertisements
Track Severe Weather on mobile